Time;durP1;ratioP1;P1;durP2;ratioP2;P2;SDS_P1;SDS_P2;PMS_P1;PMS_P2;Temp;Humidity;BMP_temperature;BMP_pressure;BME280_temperature;BME280_humidity;BME280_pressure;Samples;Min_cycle;Max_cycle;Signal;HPM_P1;HPM_P2
2023/10/22 00:00:37;;;;;;;;;;;14.90;99.90;;;;;;7334375;19;109749;-72
2023/10/22 00:03:05;;;;;;;;;;;14.90;99.90;;;;;;7329933;19;108845;-74
2023/10/22 00:05:33;;;;;;;;;;;14.90;99.90;;;;;;7330458;19;108852;-72
2023/10/22 00:08:00;;;;;;;;;;;14.90;99.90;;;;;;7334220;19;111857;-72
2023/10/22 00:10:27;;;;;;;;;;;14.90;99.90;;;;;;7331093;19;109011;-72
2023/10/22 00:12:55;;;;;;;;;;;14.80;99.90;;;;;;7336075;19;108459;-72
2023/10/22 00:15:24;;;;;;;;;;;14.90;99.90;;;;;;7333202;19;108987;-72
2023/10/22 00:17:53;;;;;;;;;;;14.80;99.90;;;;;;7332123;19;111268;-72
2023/10/22 00:20:21;;;;;;;;;;;14.80;99.90;;;;;;7330015;19;110238;-72
2023/10/22 00:22:48;;;;;;;;;;;14.80;99.90;;;;;;7333925;19;110254;-71
2023/10/22 00:25:15;;;;;;;;;;;14.90;99.90;;;;;;7332433;19;109590;-71
2023/10/22 00:27:42;;;;;;;;;;;14.90;99.90;;;;;;7333588;19;110928;-71
2023/10/22 00:30:09;;;;;;;;;;;14.90;99.90;;;;;;7332505;19;111053;-71
2023/10/22 00:32:37;;;;;;;;;;;14.90;99.90;;;;;;7333497;19;108478;-72
2023/10/22 00:35:04;;;;;;;;;;;14.90;99.90;;;;;;7336931;19;110949;-72
2023/10/22 00:37:31;;;;;;;;;;;14.80;99.90;;;;;;7333906;19;110030;-72
2023/10/22 00:39:58;;;;;;;;;;;14.90;99.90;;;;;;7331776;19;112949;-72
2023/10/22 00:42:25;;;;;;;;;;;14.90;99.90;;;;;;7336101;19;113099;-71
2023/10/22 00:44:52;;;;;;;;;;;14.90;99.90;;;;;;7340898;19;109697;-71
2023/10/22 00:47:19;;;;;;;;;;;14.80;99.90;;;;;;7336675;19;110334;-71
2023/10/22 00:49:46;;;;;;;;;;;14.90;99.90;;;;;;7339615;19;109392;-71
2023/10/22 00:52:14;;;;;;;;;;;14.90;99.90;;;;;;7338367;19;109076;-71
2023/10/22 00:54:42;;;;;;;;;;;14.90;99.90;;;;;;7341375;19;109240;-72
2023/10/22 00:57:09;;;;;;;;;;;14.90;99.90;;;;;;7345051;19;108781;-71
2023/10/22 00:59:36;;;;;;;;;;;14.90;99.90;;;;;;7341134;19;109923;-73
2023/10/22 01:02:04;;;;;;;;;;;14.90;99.90;;;;;;7338596;19;110393;-72
2023/10/22 01:04:32;;;;;;;;;;;14.90;99.90;;;;;;7334732;19;108934;-72
2023/10/22 01:06:59;;;;;;;;;;;14.90;99.90;;;;;;7339173;19;109921;-72
2023/10/22 01:09:26;;;;;;;;;;;14.90;99.90;;;;;;7339533;19;109893;-72
2023/10/22 01:12:03;;;;;;;;;;;14.90;99.90;;;;;;7337303;19;110769;-72
2023/10/22 01:14:30;;;;;;;;;;;14.90;99.90;;;;;;7337416;19;109658;-72
2023/10/22 01:16:58;;;;;;;;;;;14.90;99.90;;;;;;7336783;19;108730;-72
2023/10/22 01:19:25;;;;;;;;;;;14.90;99.90;;;;;;7344418;19;108960;-72
2023/10/22 01:21:52;;;;;;;;;;;14.90;99.90;;;;;;7338730;19;110547;-71
2023/10/22 01:24:19;;;;;;;;;;;14.90;99.90;;;;;;7336040;19;108719;-72
2023/10/22 01:26:48;;;;;;;;;;;14.90;99.90;;;;;;7336743;19;112533;-76
2023/10/22 01:29:15;;;;;;;;;;;14.90;99.90;;;;;;7335172;19;110640;-74
2023/10/22 01:31:42;;;;;;;;;;;14.90;99.90;;;;;;7334677;19;109404;-75
2023/10/22 01:34:09;;;;;;;;;;;14.90;99.90;;;;;;7334829;19;109224;-79
2023/10/22 01:36:36;;;;;;;;;;;14.90;99.90;;;;;;7337481;19;109213;-78
2023/10/22 01:41:41;;;;;;;;;;;14.90;99.90;;;;;;7337762;19;108125;-74
2023/10/22 01:44:08;;;;;;;;;;;14.90;99.90;;;;;;7333835;19;108991;-72
2023/10/22 01:46:35;;;;;;;;;;;14.90;99.90;;;;;;7334881;19;109463;-73
2023/10/22 01:49:03;;;;;;;;;;;14.90;99.90;;;;;;7336681;19;108724;-74
2023/10/22 01:51:30;;;;;;;;;;;14.90;99.90;;;;;;7332479;19;109383;-72
2023/10/22 01:53:57;;;;;;;;;;;14.90;99.90;;;;;;7329461;19;110447;-72
2023/10/22 01:56:24;;;;;;;;;;;14.90;99.90;;;;;;7334487;19;109204;-72
2023/10/22 01:58:52;;;;;;;;;;;14.80;99.90;;;;;;7339193;19;109604;-72
2023/10/22 02:01:19;;;;;;;;;;;14.80;99.90;;;;;;7341538;19;109279;-72
2023/10/22 02:03:46;;;;;;;;;;;14.80;99.90;;;;;;7336127;19;110424;-71
2023/10/22 02:06:14;;;;;;;;;;;14.80;99.90;;;;;;7336750;19;110344;-71
2023/10/22 02:08:42;;;;;;;;;;;14.80;99.90;;;;;;7335386;19;110614;-70
2023/10/22 02:11:09;;;;;;;;;;;14.70;99.90;;;;;;7337350;19;109171;-71
2023/10/22 02:13:37;;;;;;;;;;;14.80;99.90;;;;;;7335796;19;109829;-71
2023/10/22 02:16:05;;;;;;;;;;;14.70;99.90;;;;;;7334540;19;109140;-72
2023/10/22 02:18:32;;;;;;;;;;;14.80;99.90;;;;;;7334212;19;108993;-72
2023/10/22 02:21:00;;;;;;;;;;;14.70;99.90;;;;;;7331880;19;110120;-72
2023/10/22 02:23:27;;;;;;;;;;;14.70;99.90;;;;;;7338716;19;109908;-72
2023/10/22 02:25:54;;;;;;;;;;;14.70;99.90;;;;;;7334828;19;109068;-72
2023/10/22 02:28:22;;;;;;;;;;;14.70;99.90;;;;;;7336739;19;108828;-72
2023/10/22 02:30:49;;;;;;;;;;;14.70;99.90;;;;;;7336464;19;109707;-71
2023/10/22 02:33:17;;;;;;;;;;;14.70;99.90;;;;;;7336372;19;110499;-71
2023/10/22 02:35:45;;;;;;;;;;;14.70;99.90;;;;;;7333852;19;109015;-71
2023/10/22 02:38:14;;;;;;;;;;;14.70;99.90;;;;;;7328960;19;109068;-72
2023/10/22 02:40:43;;;;;;;;;;;14.60;99.90;;;;;;7329166;19;109880;-71
2023/10/22 02:43:11;;;;;;;;;;;14.70;99.90;;;;;;7332187;19;109540;-71
2023/10/22 02:45:47;;;;;;;;;;;14.60;99.90;;;;;;7341248;19;109187;-72
2023/10/22 02:48:15;;;;;;;;;;;14.60;99.90;;;;;;7333691;19;109294;-71
2023/10/22 02:50:42;;;;;;;;;;;14.60;99.90;;;;;;7331271;19;109454;-71
2023/10/22 02:53:10;;;;;;;;;;;14.60;99.90;;;;;;7332066;19;111844;-72
2023/10/22 02:55:37;;;;;;;;;;;14.60;99.90;;;;;;7333278;19;109386;-71
2023/10/22 02:58:05;;;;;;;;;;;14.60;99.90;;;;;;7334844;19;111482;-72
2023/10/22 03:00:35;;;;;;;;;;;14.60;99.90;;;;;;7332478;19;110506;-72
2023/10/22 03:03:03;;;;;;;;;;;14.60;99.90;;;;;;7334852;19;110133;-71
2023/10/22 03:05:32;;;;;;;;;;;14.60;99.90;;;;;;7331638;19;110745;-71
2023/10/22 03:08:00;;;;;;;;;;;14.60;99.90;;;;;;7339188;19;109396;-72
2023/10/22 03:10:27;;;;;;;;;;;14.60;99.90;;;;;;7331788;19;109082;-72
2023/10/22 03:12:54;;;;;;;;;;;14.50;99.90;;;;;;7331156;19;111386;-72
2023/10/22 03:15:21;;;;;;;;;;;14.50;99.90;;;;;;7331892;19;109230;-72
2023/10/22 03:17:48;;;;;;;;;;;14.50;99.90;;;;;;7333932;19;109078;-72
2023/10/22 03:20:18;;;;;;;;;;;14.50;99.90;;;;;;7327229;19;109754;-71
2023/10/22 03:22:46;;;;;;;;;;;14.40;99.90;;;;;;7330798;19;109608;-71
2023/10/22 03:25:13;;;;;;;;;;;14.40;99.90;;;;;;7334114;19;108986;-71
2023/10/22 03:27:40;;;;;;;;;;;14.40;99.90;;;;;;7335295;19;109447;-72
2023/10/22 03:30:10;;;;;;;;;;;14.40;99.90;;;;;;7337718;19;110434;-72
2023/10/22 03:32:38;;;;;;;;;;;14.30;99.90;;;;;;7332658;19;109005;-71
2023/10/22 03:35:06;;;;;;;;;;;14.30;99.90;;;;;;7333649;19;109029;-72
2023/10/22 03:37:33;;;;;;;;;;;14.30;99.90;;;;;;7331728;19;108504;-71
2023/10/22 03:40:01;;;;;;;;;;;14.30;99.90;;;;;;7332273;19;111499;-71
2023/10/22 03:42:28;;;;;;;;;;;14.30;99.90;;;;;;7333913;19;108679;-72
2023/10/22 03:44:56;;;;;;;;;;;14.30;99.90;;;;;;7334040;19;109059;-72
2023/10/22 03:47:23;;;;;;;;;;;14.30;99.90;;;;;;7331736;19;111031;-71
2023/10/22 03:49:50;;;;;;;;;;;14.30;99.90;;;;;;7338905;19;109006;-71
2023/10/22 03:52:17;;;;;;;;;;;14.30;99.90;;;;;;7330287;19;110158;-72
2023/10/22 03:54:54;;;;;;;;;;;14.30;99.90;;;;;;7334119;19;109200;-72
2023/10/22 03:57:22;;;;;;;;;;;14.30;99.90;;;;;;7331710;19;109679;-72
2023/10/22 03:59:49;;;;;;;;;;;14.30;99.90;;;;;;7333254;19;110009;-71
2023/10/22 04:02:16;;;;;;;;;;;14.30;99.90;;;;;;7331179;19;110481;-71
2023/10/22 04:04:43;;;;;;;;;;;14.20;99.90;;;;;;7331046;19;110638;-73
2023/10/22 04:07:11;;;;;;;;;;;14.20;99.90;;;;;;7333123;19;111034;-72
2023/10/22 04:09:38;;;;;;;;;;;14.20;99.90;;;;;;7334012;19;108692;-72
2023/10/22 04:12:05;;;;;;;;;;;14.20;99.90;;;;;;7337885;19;108653;-72
2023/10/22 04:14:34;;;;;;;;;;;14.20;99.90;;;;;;7330884;19;109501;-73
2023/10/22 04:17:02;;;;;;;;;;;14.20;99.90;;;;;;7339784;19;110038;-72
2023/10/22 04:19:29;;;;;;;;;;;14.20;99.90;;;;;;7347062;19;109165;-71
2023/10/22 04:21:56;;;;;;;;;;;14.20;99.90;;;;;;7346479;19;108697;-72
2023/10/22 04:24:23;;;;;;;;;;;14.20;99.90;;;;;;7346643;19;110161;-72
2023/10/22 04:26:50;;;;;;;;;;;14.10;99.90;;;;;;7346598;19;110306;-72
2023/10/22 04:29:17;;;;;;;;;;;14.10;99.90;;;;;;7345848;19;110742;-71
2023/10/22 04:31:44;;;;;;;;;;;14.10;99.90;;;;;;7347797;19;109218;-71
2023/10/22 04:34:11;;;;;;;;;;;14.10;99.90;;;;;;7348936;19;109098;-71
2023/10/22 04:36:38;;;;;;;;;;;14.00;99.90;;;;;;7345993;19;109303;-71
2023/10/22 04:39:05;;;;;;;;;;;14.10;99.90;;;;;;7347147;19;111078;-71
2023/10/22 04:41:33;;;;;;;;;;;14.10;99.90;;;;;;7346794;19;109199;-72
2023/10/22 04:44:01;;;;;;;;;;;14.00;99.90;;;;;;7347103;19;108426;-71
2023/10/22 04:46:28;;;;;;;;;;;14.00;99.90;;;;;;7343998;19;110985;-71
2023/10/22 04:48:55;;;;;;;;;;;14.00;99.90;;;;;;7346676;19;109312;-71
2023/10/22 04:51:24;;;;;;;;;;;14.00;99.90;;;;;;7344072;19;109155;-72
2023/10/22 04:53:51;;;;;;;;;;;14.00;99.90;;;;;;7346278;19;111818;-71
2023/10/22 04:56:18;;;;;;;;;;;14.00;99.90;;;;;;7349975;19;108302;-71
2023/10/22 04:58:45;;;;;;;;;;;14.00;99.90;;;;;;7346440;19;109125;-71
2023/10/22 05:01:12;;;;;;;;;;;14.00;99.90;;;;;;7345498;19;109637;-71
2023/10/22 05:03:39;;;;;;;;;;;13.90;99.90;;;;;;7347454;19;108852;-71
2023/10/22 05:06:07;;;;;;;;;;;13.90;99.90;;;;;;7344409;19;110174;-71
2023/10/22 05:08:40;;;;;;;;;;;13.90;99.90;;;;;;7347375;19;110223;-71
2023/10/22 05:11:16;;;;;;;;;;;14.00;99.90;;;;;;7344838;19;109134;-72
2023/10/22 05:13:43;;;;;;;;;;;14.00;99.90;;;;;;7344824;19;109558;-71
2023/10/22 05:16:10;;;;;;;;;;;14.00;99.90;;;;;;7345543;19;109539;-72
2023/10/22 05:18:38;;;;;;;;;;;13.90;99.90;;;;;;7352015;19;109007;-72
2023/10/22 05:21:06;;;;;;;;;;;13.90;99.90;;;;;;7348023;19;108415;-71
2023/10/22 05:23:33;;;;;;;;;;;13.90;99.90;;;;;;7344213;19;108274;-71
2023/10/22 05:26:05;;;;;;;;;;;13.90;99.90;;;;;;7347115;19;111598;-71
2023/10/22 05:28:32;;;;;;;;;;;13.90;99.90;;;;;;7340741;19;109557;-72
2023/10/22 05:30:59;;;;;;;;;;;13.90;99.90;;;;;;7337716;19;108296;-71
2023/10/22 05:33:26;;;;;;;;;;;13.90;99.90;;;;;;7338048;19;110248;-71
2023/10/22 05:35:53;;;;;;;;;;;13.90;99.90;;;;;;7339538;19;108697;-71
2023/10/22 05:38:21;;;;;;;;;;;13.80;99.90;;;;;;7338059;19;112108;-72
2023/10/22 05:40:48;;;;;;;;;;;13.80;99.90;;;;;;7343477;19;110339;-72
2023/10/22 05:43:15;;;;;;;;;;;13.80;99.90;;;;;;7336664;19;109502;-71
2023/10/22 05:45:42;;;;;;;;;;;13.80;99.90;;;;;;7335635;19;110815;-71
2023/10/22 05:48:09;;;;;;;;;;;13.80;99.90;;;;;;7337339;19;109013;-71
2023/10/22 05:50:38;;;;;;;;;;;13.80;99.90;;;;;;7337447;19;109725;-71
2023/10/22 05:53:05;;;;;;;;;;;13.80;99.90;;;;;;7333501;19;110541;-71
2023/10/22 05:55:32;;;;;;;;;;;13.80;99.90;;;;;;7335667;19;110396;-72
2023/10/22 05:57:59;;;;;;;;;;;13.80;99.90;;;;;;7334288;19;110371;-73
2023/10/22 06:00:26;;;;;;;;;;;13.70;99.90;;;;;;7337493;19;111686;-73
2023/10/22 06:02:53;;;;;;;;;;;13.70;99.90;;;;;;7334774;19;108809;-70
2023/10/22 06:05:21;;;;;;;;;;;13.70;99.90;;;;;;7331596;19;110142;-71
2023/10/22 06:07:52;;;;;;;;;;;13.70;99.90;;;;;;7333859;19;109049;-71
2023/10/22 06:10:19;;;;;;;;;;;13.60;99.90;;;;;;7334249;19;109409;-72
2023/10/22 06:12:48;;;;;;;;;;;13.60;99.90;;;;;;7332669;19;110518;-73
2023/10/22 06:15:16;;;;;;;;;;;13.60;99.90;;;;;;7333260;19;109255;-71
2023/10/22 06:17:44;;;;;;;;;;;13.60;99.90;;;;;;7335343;19;109604;-71
2023/10/22 06:20:11;;;;;;;;;;;13.60;99.90;;;;;;7327408;19;111681;-71
2023/10/22 06:22:38;;;;;;;;;;;13.60;99.90;;;;;;7341456;19;109851;-71
2023/10/22 06:25:05;;;;;;;;;;;13.60;99.90;;;;;;7335290;19;110473;-71
2023/10/22 06:27:32;;;;;;;;;;;13.60;99.90;;;;;;7334131;19;108473;-72
2023/10/22 06:29:59;;;;;;;;;;;13.60;99.90;;;;;;7334693;19;108943;-72
2023/10/22 06:32:27;;;;;;;;;;;13.60;99.90;;;;;;7338247;19;110143;-72
2023/10/22 06:34:54;;;;;;;;;;;13.60;99.90;;;;;;7334585;19;110456;-77
2023/10/22 06:37:21;;;;;;;;;;;13.60;99.90;;;;;;7335615;19;109445;-75
2023/10/22 06:39:51;;;;;;;;;;;13.60;99.90;;;;;;7330438;19;110910;-75
2023/10/22 06:42:18;;;;;;;;;;;13.60;99.90;;;;;;7337393;19;108366;-77
2023/10/22 06:44:45;;;;;;;;;;;13.60;99.90;;;;;;7338732;19;108920;-77
2023/10/22 06:47:12;;;;;;;;;;;13.60;99.90;;;;;;7334086;19;108905;-76
2023/10/22 06:49:39;;;;;;;;;;;13.60;99.90;;;;;;7331323;19;109104;-73
2023/10/22 06:52:06;;;;;;;;;;;13.60;99.90;;;;;;7332484;19;111832;-72
2023/10/22 06:54:33;;;;;;;;;;;13.60;99.90;;;;;;7332927;19;108969;-72
2023/10/22 06:57:00;;;;;;;;;;;13.60;99.90;;;;;;7331291;19;110674;-75
2023/10/22 06:59:28;;;;;;;;;;;13.60;99.90;;;;;;7333337;19;109252;-73
2023/10/22 07:01:55;;;;;;;;;;;13.60;99.90;;;;;;7333637;19;108820;-71
2023/10/22 07:04:23;;;;;;;;;;;13.70;99.90;;;;;;7334010;19;108632;-74
2023/10/22 07:06:50;;;;;;;;;;;13.70;99.90;;;;;;7336927;19;110170;-70
2023/10/22 07:09:17;;;;;;;;;;;13.70;99.90;;;;;;7332512;19;110167;-71
2023/10/22 07:11:46;;;;;;;;;;;13.70;99.90;;;;;;7333193;19;110432;-72
2023/10/22 07:14:13;;;;;;;;;;;13.70;99.90;;;;;;7330926;19;108794;-71
2023/10/22 07:16:40;;;;;;;;;;;13.70;99.90;;;;;;7333528;19;110974;-71
2023/10/22 07:19:07;;;;;;;;;;;13.70;99.90;;;;;;7333249;19;109599;-71
2023/10/22 07:21:34;;;;;;;;;;;13.70;99.90;;;;;;7334720;19;109329;-71
2023/10/22 07:24:02;;;;;;;;;;;13.70;99.90;;;;;;7330764;19;109445;-71
2023/10/22 07:26:30;;;;;;;;;;;13.80;99.90;;;;;;7334661;19;109311;-71
2023/10/22 07:28:58;;;;;;;;;;;13.80;99.90;;;;;;7340491;19;110617;-71
2023/10/22 07:31:25;;;;;;;;;;;13.80;99.90;;;;;;7332444;19;109427;-75
2023/10/22 07:33:52;;;;;;;;;;;13.90;99.90;;;;;;7333006;19;109727;-78
2023/10/22 07:36:19;;;;;;;;;;;13.90;99.90;;;;;;7333697;19;109003;-77
2023/10/22 07:38:48;;;;;;;;;;;13.90;99.90;;;;;;7333825;19;109090;-78
2023/10/22 07:41:15;;;;;;;;;;;13.90;99.90;;;;;;7336364;19;108669;-75
2023/10/22 07:43:42;;;;;;;;;;;14.00;99.90;;;;;;7335247;19;108736;-71
2023/10/22 07:46:14;;;;;;;;;;;14.00;99.90;;;;;;7332750;19;110170;-72
2023/10/22 07:48:42;;;;;;;;;;;14.00;99.90;;;;;;7336606;19;108517;-72
2023/10/22 07:51:13;;;;;;;;;;;14.00;99.90;;;;;;7338789;19;109778;-72
2023/10/22 07:53:41;;;;;;;;;;;14.10;99.90;;;;;;7330090;19;110205;-72
2023/10/22 07:56:09;;;;;;;;;;;14.10;99.90;;;;;;7335367;19;110347;-72
2023/10/22 07:58:36;;;;;;;;;;;14.20;99.90;;;;;;7325546;19;110704;-71
2023/10/22 08:01:04;;;;;;;;;;;14.20;99.90;;;;;;7331044;19;108765;-71
2023/10/22 08:03:32;;;;;;;;;;;14.20;99.90;;;;;;7333758;19;109780;-71
2023/10/22 08:06:00;;;;;;;;;;;14.30;99.90;;;;;;7335651;19;109178;-72
2023/10/22 08:08:28;;;;;;;;;;;14.40;99.90;;;;;;7333043;19;108822;-71
2023/10/22 08:10:58;;;;;;;;;;;14.40;99.90;;;;;;7338074;19;109072;-71
2023/10/22 08:13:26;;;;;;;;;;;14.50;99.90;;;;;;7331639;19;109798;-72
2023/10/22 08:15:54;;;;;;;;;;;14.50;99.90;;;;;;7334916;19;108207;-72
2023/10/22 08:18:22;;;;;;;;;;;14.60;99.90;;;;;;7330949;19;110378;-72
2023/10/22 08:20:50;;;;;;;;;;;14.70;99.90;;;;;;7330070;19;108864;-71
2023/10/22 08:23:17;;;;;;;;;;;14.70;99.90;;;;;;7336064;19;109847;-71
2023/10/22 08:25:51;;;;;;;;;;;14.70;99.90;;;;;;7330755;19;110300;-72
2023/10/22 08:28:18;;;;;;;;;;;14.80;99.90;;;;;;7330357;19;108499;-71
2023/10/22 08:30:46;;;;;;;;;;;14.80;99.90;;;;;;7333178;19;109115;-71
2023/10/22 08:33:13;;;;;;;;;;;14.90;99.90;;;;;;7334078;19;111577;-71
2023/10/22 08:35:41;;;;;;;;;;;14.90;99.90;;;;;;7336133;19;112187;-71
2023/10/22 08:38:08;;;;;;;;;;;15.00;99.90;;;;;;7332244;19;111870;-71
2023/10/22 08:40:37;;;;;;;;;;;15.00;99.90;;;;;;7334028;19;110324;-71
2023/10/22 08:43:05;;;;;;;;;;;15.00;99.90;;;;;;7331168;19;108693;-72
2023/10/22 08:45:32;;;;;;;;;;;15.10;99.90;;;;;;7335048;19;110396;-71
2023/10/22 08:48:06;;;;;;;;;;;15.20;99.90;;;;;;7331662;19;111898;-71
2023/10/22 08:50:34;;;;;;;;;;;15.20;99.90;;;;;;7332290;19;108435;-71
2023/10/22 08:53:01;;;;;;;;;;;15.20;99.90;;;;;;7331222;19;110019;-71
2023/10/22 08:55:29;;;;;;;;;;;15.20;99.90;;;;;;7337789;19;109264;-71
2023/10/22 08:57:57;;;;;;;;;;;15.20;99.90;;;;;;7331007;19;110525;-71
2023/10/22 09:00:25;;;;;;;;;;;15.30;99.90;;;;;;7330120;19;109228;-72
2023/10/22 09:02:56;;;;;;;;;;;15.20;99.90;;;;;;7335111;19;109507;-71
2023/10/22 09:05:23;;;;;;;;;;;15.30;99.90;;;;;;7338044;19;109313;-71
2023/10/22 09:07:51;;;;;;;;;;;15.30;99.90;;;;;;7339117;19;111403;-71
2023/10/22 09:10:25;;;;;;;;;;;15.30;99.90;;;;;;7336352;19;109396;-70
2023/10/22 09:12:53;;;;;;;;;;;15.30;99.90;;;;;;7337809;19;110118;-71
2023/10/22 09:15:20;;;;;;;;;;;15.30;99.90;;;;;;7336113;19;109055;-67
2023/10/22 09:17:58;;;;;;;;;;;15.20;99.90;;;;;;7344175;19;108898;-69
2023/10/22 09:20:26;;;;;;;;;;;15.30;99.90;;;;;;7337531;19;110193;-73
2023/10/22 09:23:10;;;;;;;;;;;15.30;99.90;;;;;;7340377;19;108770;-72
2023/10/22 09:25:37;;;;;;;;;;;15.30;99.90;;;;;;7338831;19;109301;-72
2023/10/22 09:28:20;;;;;;;;;;;15.30;99.90;;;;;;7338153;19;109779;-72
2023/10/22 09:30:53;;;;;;;;;;;15.30;99.90;;;;;;7337978;19;110775;-72
2023/10/22 09:33:29;;;;;;;;;;;15.40;99.90;;;;;;7338841;19;112261;-72
2023/10/22 09:35:59;;;;;;;;;;;15.40;99.90;;;;;;7336770;19;108575;-73
2023/10/22 09:38:43;;;;;;;;;;;15.40;99.90;;;;;;7340539;19;109423;-75
2023/10/22 09:41:12;;;;;;;;;;;15.40;99.90;;;;;;7344217;19;110625;-71
2023/10/22 09:46:30;;;;;;;;;;;15.50;99.90;;;;;;7329697;19;109252;-93
2023/10/22 09:48:58;;;;;;;;;;;15.50;99.90;;;;;;7339260;19;108618;-92
2023/10/22 09:51:33;;;;;;;;;;;15.50;99.90;;;;;;7335403;19;111025;-89
2023/10/22 09:54:02;;;;;;;;;;;15.60;99.90;;;;;;7337835;19;109080;-90
2023/10/22 09:56:32;;;;;;;;;;;15.60;99.90;;;;;;7337934;19;110328;-88
2023/10/22 09:59:07;;;;;;;;;;;15.70;99.90;;;;;;7337621;19;110675;-88
2023/10/22 10:01:34;;;;;;;;;;;15.70;99.90;;;;;;7334213;19;109477;-88
2023/10/22 10:04:04;;;;;;;;;;;15.80;99.90;;;;;;7339738;19;108872;-88
2023/10/22 10:06:35;;;;;;;;;;;15.80;99.90;;;;;;7336206;19;112666;-87
2023/10/22 10:09:03;;;;;;;;;;;15.90;99.90;;;;;;7344551;19;109074;-89
2023/10/22 10:11:31;;;;;;;;;;;15.90;99.90;;;;;;7370931;19;108188;-92
2023/10/22 10:14:21;;;;;;;;;;;15.90;99.90;;;;;;7357150;19;111550;-92
2023/10/22 10:16:57;;;;;;;;;;;15.90;99.90;;;;;;7352597;19;109135;-85
2023/10/22 10:19:25;;;;;;;;;;;15.90;99.90;;;;;;7355387;19;110776;-87
2023/10/22 10:21:53;;;;;;;;;;;16.00;99.90;;;;;;7364081;19;109025;-86
2023/10/22 10:24:29;;;;;;;;;;;16.10;99.90;;;;;;7361827;19;109701;-86
2023/10/22 10:26:56;;;;;;;;;;;16.20;99.90;;;;;;7357278;19;109226;-86
2023/10/22 10:29:28;;;;;;;;;;;16.30;99.90;;;;;;7351597;19;108931;-88
2023/10/22 10:32:15;;;;;;;;;;;16.40;99.90;;;;;;7361872;19;110244;-86
2023/10/22 10:34:45;;;;;;;;;;;16.50;99.90;;;;;;7366357;19;109199;-89
2023/10/22 10:37:14;;;;;;;;;;;16.50;99.90;;;;;;7369129;19;109795;-88
2023/10/22 10:39:42;;;;;;;;;;;16.50;99.90;;;;;;7374551;19;108104;-87
2023/10/22 10:42:10;;;;;;;;;;;16.50;99.90;;;;;;7366189;19;108775;-88
2023/10/22 10:44:58;;;;;;;;;;;16.60;99.90;;;;;;7369298;19;109504;-87
2023/10/22 10:47:28;;;;;;;;;;;16.60;99.90;;;;;;7374037;19;109919;-88
2023/10/22 10:50:03;;;;;;;;;;;16.70;99.90;;;;;;7367593;19;108482;-88
2023/10/22 10:52:31;;;;;;;;;;;16.80;99.90;;;;;;7370888;19;107925;-89
2023/10/22 10:55:06;;;;;;;;;;;16.80;99.90;;;;;;7363866;19;109393;-89
2023/10/22 10:57:34;;;;;;;;;;;16.80;99.90;;;;;;7361466;19;109428;-87
2023/10/22 11:00:04;;;;;;;;;;;16.80;99.90;;;;;;7356383;19;108424;-86
2023/10/22 11:03:01;;;;;;;;;;;16.90;99.90;;;;;;7341542;19;109787;-88
2023/10/22 11:05:39;;;;;;;;;;;16.90;99.90;;;;;;7338731;19;108809;-91
2023/10/22 11:08:15;;;;;;;;;;;16.90;99.90;;;;;;7330005;19;112118;-89
2023/10/22 11:10:43;;;;;;;;;;;16.90;99.90;;;;;;7336182;19;111395;-88
2023/10/22 11:13:10;;;;;;;;;;;16.90;99.90;;;;;;7333454;19;109162;-89
2023/10/22 11:15:37;;;;;;;;;;;16.90;99.90;;;;;;7330197;19;113111;-88
2023/10/22 11:18:05;;;;;;;;;;;16.90;99.90;;;;;;7331100;19;108591;-90
2023/10/22 11:20:32;;;;;;;;;;;16.90;99.90;;;;;;7332139;19;109495;-88
2023/10/22 11:23:00;;;;;;;;;;;16.90;99.90;;;;;;7332542;19;112999;-90
2023/10/22 11:25:27;;;;;;;;;;;16.90;99.90;;;;;;7334558;19;108842;-90
2023/10/22 11:27:55;;;;;;;;;;;16.80;99.90;;;;;;7336620;19;111201;-94
2023/10/22 11:30:38;;;;;;;;;;;16.80;99.90;;;;;;7332627;19;113342;-92
2023/10/22 11:33:06;;;;;;;;;;;16.90;99.90;;;;;;7333180;19;109722;-88
2023/10/22 11:35:36;;;;;;;;;;;16.90;99.90;;;;;;7333030;19;110502;-89
2023/10/22 11:38:03;;;;;;;;;;;17.00;99.90;;;;;;7332191;19;111605;-90
2023/10/22 11:40:34;;;;;;;;;;;16.90;99.90;;;;;;7328456;19;112377;-89
2023/10/22 11:43:05;;;;;;;;;;;16.90;99.90;;;;;;7326469;19;109986;-92
2023/10/22 11:45:35;;;;;;;;;;;17.00;99.90;;;;;;7333597;19;108490;-89
2023/10/22 11:48:24;;;;;;;;;;;17.00;99.90;;;;;;7334570;19;110433;-90
2023/10/22 11:50:55;;;;;;;;;;;17.00;99.90;;;;;;7333779;19;111852;-92
2023/10/22 11:53:23;;;;;;;;;;;17.10;99.90;;;;;;7332735;19;109346;-89
2023/10/22 11:55:50;;;;;;;;;;;17.10;99.90;;;;;;7341931;19;108775;-90
2023/10/22 11:58:17;;;;;;;;;;;17.00;99.90;;;;;;7336554;19;108809;-92
2023/10/22 12:00:45;;;;;;;;;;;17.00;99.90;;;;;;7333812;19;112393;-92
2023/10/22 12:03:12;;;;;;;;;;;17.00;99.90;;;;;;7336587;19;110690;-95
2023/10/22 12:05:40;;;;;;;;;;;17.00;99.90;;;;;;7341238;19;108288;-93
2023/10/22 12:08:07;;;;;;;;;;;17.00;99.90;;;;;;7338506;19;111115;-95
2023/10/22 12:10:34;;;;;;;;;;;17.00;99.90;;;;;;7334975;19;111032;-93
2023/10/22 12:13:02;;;;;;;;;;;17.00;99.90;;;;;;7336334;19;108789;-93
2023/10/22 12:15:30;;;;;;;;;;;17.00;99.90;;;;;;7341678;19;111086;-94
2023/10/22 12:17:57;;;;;;;;;;;17.00;99.90;;;;;;7335512;19;109110;-93
2023/10/22 12:20:25;;;;;;;;;;;17.00;99.90;;;;;;7334690;19;110528;-90
2023/10/22 12:22:52;;;;;;;;;;;17.00;99.90;;;;;;7332301;19;113356;-91
2023/10/22 12:25:19;;;;;;;;;;;17.20;99.90;;;;;;7332321;19;108787;-90
2023/10/22 12:27:46;;;;;;;;;;;17.20;99.90;;;;;;7332172;19;111207;-92
2023/10/22 12:30:15;;;;;;;;;;;17.40;99.90;;;;;;7335275;19;112324;-92
2023/10/22 12:32:42;;;;;;;;;;;17.60;99.90;;;;;;7334724;19;109224;-92
2023/10/22 12:35:09;;;;;;;;;;;17.70;99.90;;;;;;7330544;19;111465;-92
2023/10/22 12:37:36;;;;;;;;;;;17.70;99.90;;;;;;7341563;19;109451;-93
2023/10/22 12:40:05;;;;;;;;;;;17.80;99.90;;;;;;7341138;19;110677;-94
2023/10/22 12:42:41;;;;;;;;;;;17.80;99.90;;;;;;7341834;19;110787;-94
2023/10/22 12:45:11;;;;;;;;;;;17.80;99.90;;;;;;7337166;19;108609;-75
2023/10/22 12:47:39;;;;;;;;;;;17.80;99.90;;;;;;7332682;19;110160;-87
2023/10/22 12:50:07;;;;;;;;;;;17.80;99.90;;;;;;7333890;19;111042;-87
2023/10/22 12:52:35;;;;;;;;;;;17.80;99.90;;;;;;7334191;19;108920;-87
2023/10/22 12:55:02;;;;;;;;;;;17.80;99.90;;;;;;7335291;19;110064;-87
2023/10/22 12:57:30;;;;;;;;;;;17.80;99.90;;;;;;7335304;19;109251;-87
2023/10/22 13:25:04;;;;;;;;;;;17.60;99.90;;;;;;7338905;19;109957;-74
2023/10/22 13:27:32;;;;;;;;;;;17.80;99.90;;;;;;7335865;19;108946;-75
2023/10/22 13:30:00;;;;;;;;;;;17.90;99.90;;;;;;7339224;19;109722;-73
2023/10/22 13:32:27;;;;;;;;;;;18.00;99.90;;;;;;7338258;19;110205;-74
2023/10/22 13:34:57;;;;;;;;;;;18.00;99.90;;;;;;7339939;19;110942;-74
2023/10/22 13:37:25;;;;;;;;;;;18.00;99.90;;;;;;7339915;19;109179;-87
2023/10/22 13:39:52;;;;;;;;;;;18.10;99.90;;;;;;7369830;19;109089;-88
2023/10/22 13:42:19;;;;;;;;;;;18.40;99.90;;;;;;7372058;19;108257;-87
2023/10/22 13:44:46;;;;;;;;;;;18.60;99.90;;;;;;7363557;19;108606;-86
2023/10/22 13:47:15;;;;;;;;;;;18.70;99.90;;;;;;7348497;19;110640;-88
2023/10/22 13:49:43;;;;;;;;;;;18.90;99.90;;;;;;7333146;19;111049;-88
2023/10/22 14:09:00;;;;;;;;;;;19.70;99.90;;;;;;7327886;19;110420;-73
2023/10/22 14:11:27;;;;;;;;;;;19.80;99.90;;;;;;7343109;19;108671;-74
2023/10/22 14:13:57;;;;;;;;;;;19.90;99.90;;;;;;7335290;19;111164;-75
2023/10/22 14:16:24;;;;;;;;;;;19.90;99.90;;;;;;7334780;19;108958;-74
2023/10/22 14:18:51;;;;;;;;;;;20.00;99.90;;;;;;7335684;19;111243;-74
2023/10/22 14:21:20;;;;;;;;;;;20.00;99.90;;;;;;7333241;19;109167;-75
2023/10/22 14:23:47;;;;;;;;;;;20.00;99.90;;;;;;7337043;19;109967;-74
2023/10/22 14:26:14;;;;;;;;;;;20.00;99.90;;;;;;7332224;19;109840;-75
2023/10/22 14:28:41;;;;;;;;;;;20.00;99.90;;;;;;7332899;19;111507;-74
2023/10/22 14:31:09;;;;;;;;;;;20.00;99.90;;;;;;7339545;19;108600;-74
2023/10/22 14:33:36;;;;;;;;;;;20.10;99.90;;;;;;7335907;19;110307;-74
2023/10/22 14:36:04;;;;;;;;;;;20.10;99.90;;;;;;7334335;19;108812;-74
2023/10/22 14:38:31;;;;;;;;;;;20.20;99.90;;;;;;7337725;19;109910;-74
2023/10/22 14:41:02;;;;;;;;;;;20.10;99.90;;;;;;7335365;19;111034;-74
2023/10/22 14:43:29;;;;;;;;;;;20.10;99.90;;;;;;7336228;19;108746;-74
2023/10/22 14:46:00;;;;;;;;;;;20.00;99.90;;;;;;7335578;19;108915;-74
2023/10/22 14:48:28;;;;;;;;;;;20.00;99.90;;;;;;7335268;19;109420;-74
2023/10/22 14:51:00;;;;;;;;;;;19.90;99.90;;;;;;7335794;19;108887;-74
2023/10/22 14:53:28;;;;;;;;;;;19.80;99.90;;;;;;7335409;19;109523;-70
2023/10/22 14:55:59;;;;;;;;;;;19.70;99.90;;;;;;7327442;19;110166;-68
2023/10/22 14:58:27;;;;;;;;;;;19.70;99.90;;;;;;7318231;19;110796;-68